Manistique, Michigan
Current Conditions -  °F | °C
As of 5:15 PM on Sunday 21 Dec 2014 (Local Time) from KISQ Reporting Station
Drizzle Drizzle  
Wind Chill: 26°   Ceiling: 500
Heat Index: 35°   Visibility: 4mi
Dew Point: 35°   Wind: 13mph
Humidity: 100%   Direction: 170°S
Pressure: 30.05"   Gusts: 21mph
Location:  45.96°N, 86.25°W
Report Text: KISQ 212215Z AUTO 17011G18KT 4SM -DZ OVC005 02/02 A3005 RMK AO2 T00160016
Loading
Personal Weather Stations






























Interactive Weather Map New forecast layout! Learn more

10-Day Weather Forecast

Advertisements
Track Severe Weather on mobile